createdAt,value
2023-01-11T00:01:04.625Z,96125.16
2023-01-11T00:03:34.289Z,96232.66
2023-01-11T00:06:01.970Z,96226.00
2023-01-11T00:08:29.783Z,96148.00
2023-01-11T00:10:57.472Z,96167.81
2023-01-11T00:13:25.145Z,96150.97
2023-01-11T00:15:52.977Z,96163.19
2023-01-11T00:18:20.823Z,96161.88
2023-01-11T00:20:49.919Z,96265.38
2023-01-11T00:23:17.652Z,96240.94
2023-01-11T00:25:45.481Z,96169.81
2023-01-11T00:28:13.178Z,96210.09
2023-01-11T00:30:49.435Z,96227.66
2023-01-11T00:33:17.205Z,96232.88
2023-01-11T00:35:44.877Z,96263.69
2023-01-11T00:38:34.314Z,96233.03
2023-01-11T00:41:22.578Z,96225.44
2023-01-11T00:44:07.707Z,96208.41
2023-01-11T00:46:52.904Z,96215.13
2023-01-11T00:49:20.600Z,96206.56
2023-01-11T00:51:49.013Z,96195.28
2023-01-11T00:54:18.232Z,96139.44
2023-01-11T00:56:45.970Z,96240.41
2023-01-11T00:59:13.910Z,96212.31
2023-01-11T01:01:41.652Z,96211.66
2023-01-11T01:04:09.402Z,96214.66
2023-01-11T01:06:37.116Z,96184.19
2023-01-11T01:09:04.963Z,96221.69
2023-01-11T01:11:34.057Z,96143.88
2023-01-11T01:14:19.272Z,96202.78
2023-01-11T01:16:47.625Z,96183.94
2023-01-11T01:19:15.575Z,96228.66
2023-01-11T01:21:43.266Z,96183.22
2023-01-11T01:24:40.687Z,96220.84
2023-01-11T01:27:09.700Z,96229.44
2023-01-11T01:29:37.322Z,96229.13
2023-01-11T01:32:05.241Z,96225.72
2023-01-11T01:34:37.296Z,96173.63
2023-01-11T01:37:05.044Z,96224.28
2023-01-11T01:39:32.702Z,96222.81
2023-01-11T01:42:00.659Z,96225.63
2023-01-11T01:44:59.054Z,96224.84
2023-01-11T01:47:38.492Z,96194.44
2023-01-11T01:50:12.751Z,96220.22
2023-01-11T01:52:44.403Z,96180.19
2023-01-11T01:55:16.847Z,96179.63
2023-01-11T01:57:45.920Z,96209.69
2023-01-11T02:00:15.553Z,96147.25
2023-01-11T02:02:46.181Z,96124.13
2023-01-11T02:05:16.684Z,96199.66
2023-01-11T02:07:45.493Z,96208.31
2023-01-11T02:10:16.467Z,96208.25
2023-01-11T02:12:50.815Z,96204.72
2023-01-11T02:15:22.590Z,96201.63
2023-01-11T02:17:50.714Z,96090.72
2023-01-11T02:20:45.873Z,96194.34
2023-01-11T02:23:56.735Z,96192.56
2023-01-11T02:27:01.965Z,96190.72
2023-01-11T02:29:41.107Z,96181.69
2023-01-11T02:32:21.028Z,96174.44
2023-01-11T02:34:55.899Z,96162.97
2023-01-11T02:37:35.550Z,96161.41
2023-01-11T02:40:10.403Z,96156.38
2023-01-11T02:42:58.089Z,96132.00
2023-01-11T02:45:39.775Z,96155.97
2023-01-11T02:48:16.953Z,96145.78
2023-01-11T02:50:51.948Z,96151.47
2023-01-11T02:53:24.852Z,96085.69
2023-01-11T02:55:58.353Z,95999.91
2023-01-11T02:58:30.314Z,96122.09
2023-01-11T03:01:17.564Z,96139.31
2023-01-11T03:03:45.281Z,96140.09
2023-01-11T03:06:17.871Z,96056.47
2023-01-11T03:09:10.184Z,96127.28
2023-01-11T03:12:08.850Z,96149.97
2023-01-11T03:14:45.846Z,96136.94
2023-01-11T03:17:26.657Z,96120.47
2023-01-11T03:19:56.775Z,96107.00
2023-01-11T03:22:29.993Z,96115.03
2023-01-11T03:25:09.807Z,96098.03
2023-01-11T03:27:45.089Z,96110.16
2023-01-11T03:30:16.864Z,96092.00
2023-01-11T03:32:49.936Z,96094.97
2023-01-11T03:35:25.949Z,96091.31
2023-01-11T03:37:59.793Z,96083.25
2023-01-11T03:40:32.143Z,96060.22
2023-01-11T03:43:13.395Z,96092.47
2023-01-11T03:45:46.709Z,96075.34
2023-01-11T03:48:19.407Z,96078.97
2023-01-11T03:50:50.546Z,96048.09
2023-01-11T03:53:20.994Z,96031.78
2023-01-11T03:55:55.595Z,95937.94
2023-01-11T03:58:23.603Z,96018.28
2023-01-11T04:00:52.115Z,95963.06
2023-01-11T04:03:21.233Z,95958.41
2023-01-11T04:05:51.834Z,96055.47
2023-01-11T04:08:19.615Z,96010.53
2023-01-11T04:10:47.513Z,96056.13
2023-01-11T04:13:15.201Z,95977.31
2023-01-11T04:15:42.920Z,96057.09
2023-01-11T04:18:10.625Z,96058.09
2023-01-11T04:20:41.299Z,95996.69
2023-01-11T04:23:10.635Z,96035.50
2023-01-11T04:25:38.422Z,96045.44
2023-01-11T04:28:06.444Z,95987.06
2023-01-11T04:30:35.993Z,96056.84
2023-01-11T04:33:03.832Z,95965.69
2023-01-11T04:35:31.551Z,96052.03
2023-01-11T04:38:00.658Z,96047.81
2023-01-11T04:40:30.312Z,96056.53
2023-01-11T04:42:57.151Z,96052.34
2023-01-11T04:45:25.030Z,95965.78
2023-01-11T04:47:56.042Z,96019.31
2023-01-11T04:50:24.568Z,96044.28
2023-01-11T04:52:52.414Z,96022.50
2023-01-11T04:55:21.762Z,95996.66
2023-01-11T04:57:49.511Z,96058.91
2023-01-11T05:00:17.969Z,95970.47
2023-01-11T05:02:45.716Z,96036.78
2023-01-11T05:05:13.677Z,96028.69
2023-01-11T05:07:41.415Z,96043.44
2023-01-11T05:10:10.339Z,95980.72
2023-01-11T05:12:39.420Z,95893.56
2023-01-11T05:15:08.797Z,96023.63
2023-01-11T05:17:36.848Z,96015.88
2023-01-11T05:20:05.472Z,95998.38
2023-01-11T05:22:33.185Z,95958.94
2023-01-11T05:25:00.952Z,95996.88
2023-01-11T05:27:28.714Z,95972.69
2023-01-11T05:29:57.821Z,96013.97
2023-01-11T05:32:25.553Z,96006.03
2023-01-11T05:34:53.279Z,95914.00
2023-01-11T05:37:20.958Z,95963.00
2023-01-11T05:39:48.686Z,95950.38
2023-01-11T05:42:16.672Z,96036.06
2023-01-11T05:45:01.952Z,95963.38
2023-01-11T05:47:30.991Z,96024.13
2023-01-11T05:49:58.678Z,95959.34
2023-01-11T05:52:26.346Z,95988.66
2023-01-11T05:55:07.073Z,96015.59
2023-01-11T05:57:34.698Z,96020.56
2023-01-11T06:00:02.431Z,96002.56
2023-01-11T06:02:35.982Z,96028.16
2023-01-11T06:05:03.761Z,96026.81
2023-01-11T06:07:32.603Z,96007.03
2023-01-11T06:10:03.273Z,96020.50
2023-01-11T06:12:43.704Z,96010.75
2023-01-11T06:15:12.199Z,96010.75
2023-01-11T06:17:41.246Z,96014.41
2023-01-11T06:20:10.641Z,95999.59
2023-01-11T06:22:38.306Z,95940.63
2023-01-11T06:25:06.792Z,95979.03
2023-01-11T06:27:34.496Z,96004.19
2023-01-11T06:30:02.275Z,95981.84
2023-01-11T06:32:30.527Z,95920.34
2023-01-11T06:34:59.626Z,95858.03
2023-01-11T06:37:27.399Z,95904.94
2023-01-11T06:39:55.158Z,95957.09
2023-01-11T06:42:23.008Z,95974.41
2023-01-11T06:44:50.636Z,96005.13
2023-01-11T06:47:18.273Z,95939.59
2023-01-11T06:49:45.929Z,95893.53
2023-01-11T06:52:14.933Z,95988.81
2023-01-11T06:54:42.545Z,96016.06
2023-01-11T06:57:10.212Z,95867.03
2023-01-11T06:59:39.344Z,95987.94
2023-01-11T07:02:32.501Z,96020.78
2023-01-11T07:05:00.196Z,95971.03
2023-01-11T07:07:29.216Z,96026.88
2023-01-11T07:09:56.875Z,95995.78
2023-01-11T07:12:24.593Z,96027.69
2023-01-11T07:14:52.272Z,95973.00
2023-01-11T07:17:19.929Z,95996.44
2023-01-11T07:19:47.609Z,95963.97
2023-01-11T07:22:16.021Z,95871.25
2023-01-11T07:24:46.976Z,96017.31
2023-01-11T07:27:16.011Z,96017.78
2023-01-11T07:29:43.672Z,95891.81
2023-01-11T07:32:11.592Z,95937.72
2023-01-11T07:34:39.218Z,95983.22
2023-01-11T07:37:09.484Z,95928.84
2023-01-11T07:39:57.708Z,96017.31
2023-01-11T07:42:42.719Z,96003.22
2023-01-11T07:45:11.226Z,96004.56
2023-01-11T07:47:39.960Z,95993.78
2023-01-11T07:50:08.989Z,96010.97
2023-01-11T07:52:36.660Z,95991.34
2023-01-11T07:55:06.486Z,96007.31
2023-01-11T07:57:38.604Z,95915.31
2023-01-11T08:00:07.210Z,95999.19
2023-01-11T08:02:39.474Z,95969.53
2023-01-11T08:05:08.371Z,95983.63
2023-01-11T08:07:36.033Z,95977.84
2023-01-11T08:10:05.778Z,95928.06
2023-01-11T08:12:51.673Z,95977.50
2023-01-11T08:15:19.440Z,95963.63
2023-01-11T08:17:47.191Z,95998.81
2023-01-11T08:20:14.904Z,95987.88
2023-01-11T08:22:42.586Z,95811.75
2023-01-11T08:25:11.951Z,95861.03
2023-01-11T08:27:40.723Z,95884.06
2023-01-11T08:30:10.003Z,95973.09
2023-01-11T08:32:37.732Z,95901.41
2023-01-11T08:35:05.938Z,95926.41
2023-01-11T08:37:33.733Z,95857.56
2023-01-11T08:40:01.471Z,95953.63
2023-01-11T08:42:30.507Z,95969.97
2023-01-11T08:44:58.186Z,95911.59
2023-01-11T08:47:25.948Z,95917.97
2023-01-11T08:49:53.660Z,95868.06
2023-01-11T08:52:22.384Z,95797.47
2023-01-11T08:54:50.057Z,95950.22
2023-01-11T08:57:17.854Z,95886.81
2023-01-11T08:59:47.025Z,95891.44
2023-01-11T09:02:14.739Z,95815.06
2023-01-11T09:04:42.755Z,95916.28
2023-01-11T09:07:10.537Z,95792.41
2023-01-11T09:09:38.262Z,95920.44
2023-01-11T09:12:06.633Z,95785.09
2023-01-11T09:14:34.447Z,95860.72
2023-01-11T09:17:03.606Z,95942.38
2023-01-11T09:19:33.388Z,95810.63
2023-01-11T09:22:03.306Z,95933.81
2023-01-11T09:24:31.270Z,95899.66
2023-01-11T09:26:59.633Z,95908.66
2023-01-11T09:29:27.775Z,95873.84
2023-01-11T09:31:55.446Z,95930.38
2023-01-11T09:34:25.405Z,95749.53
2023-01-11T09:36:53.124Z,95834.09
2023-01-11T09:39:24.403Z,95824.75
2023-01-11T09:42:12.947Z,95939.47
2023-01-11T09:44:50.801Z,95848.41
2023-01-11T09:47:29.587Z,95923.72
2023-01-11T09:50:02.900Z,95923.47
2023-01-11T09:52:37.025Z,95927.63
2023-01-11T09:55:05.747Z,95952.34
2023-01-11T09:57:49.273Z,95948.44
2023-01-11T10:00:27.191Z,95950.31
2023-01-11T10:03:15.312Z,95944.06
2023-01-11T10:05:56.679Z,95941.75
2023-01-11T10:18:29.668Z,95910.00
2023-01-11T10:18:41.585Z,95829.88
2023-01-11T10:20:38.351Z,95916.63
2023-01-11T10:23:15.174Z,95915.63
2023-01-11T10:25:51.462Z,95845.97
2023-01-11T10:28:27.530Z,95855.13
2023-01-11T10:31:11.214Z,95904.59
2023-01-11T10:33:57.439Z,95881.22
2023-01-11T10:36:51.674Z,95920.66
2023-01-11T10:39:46.525Z,95917.50
2023-01-11T10:42:21.651Z,95834.22
2023-01-11T10:45:00.036Z,95829.75
2023-01-11T10:47:32.746Z,95792.50
2023-01-11T10:50:06.299Z,95913.53
2023-01-11T10:52:41.409Z,95820.81
2023-01-11T10:55:16.389Z,95897.16
2023-01-11T10:58:01.554Z,95797.09
2023-01-11T11:00:39.948Z,95888.31
2023-01-11T11:03:38.977Z,95883.06
2023-01-11T11:06:14.133Z,95849.59
2023-01-11T11:08:52.054Z,95806.94
2023-01-11T11:11:28.958Z,95691.06
2023-01-11T11:14:03.527Z,95753.94
2023-01-11T11:16:44.867Z,95849.88
2023-01-11T11:19:18.698Z,95789.56
2023-01-11T11:21:47.568Z,95869.91
2023-01-11T11:24:22.842Z,95875.28
2023-01-11T11:26:59.070Z,95762.91
2023-01-11T11:29:30.583Z,95849.09
2023-01-11T11:32:00.868Z,95719.09
2023-01-11T11:34:31.003Z,95854.59
2023-01-11T11:37:01.712Z,95838.41
2023-01-11T11:39:31.297Z,95658.59
2023-01-11T11:42:07.394Z,95841.44
2023-01-11T11:44:35.531Z,95826.81
2023-01-11T11:47:04.844Z,95766.03
2023-01-11T11:49:33.837Z,95835.97
2023-01-11T11:52:04.150Z,95646.38
2023-01-11T11:54:34.985Z,95763.78
2023-01-11T11:57:17.155Z,95823.50
2023-01-11T11:59:50.593Z,95756.41
2023-01-11T12:02:29.564Z,95790.94
2023-01-11T12:04:59.363Z,95812.91
2023-01-11T12:07:34.387Z,95703.97
2023-01-11T12:10:09.903Z,95663.41
2023-01-11T12:12:52.278Z,95817.84
2023-01-11T12:15:23.942Z,95790.25
2023-01-11T12:17:51.982Z,95727.72
2023-01-11T12:20:35.241Z,95796.00
2023-01-11T12:23:17.942Z,95810.91
2023-01-11T12:26:22.316Z,95784.53
2023-01-11T12:29:27.297Z,95768.06
2023-01-11T12:32:18.816Z,95789.47
2023-01-11T12:35:15.579Z,95759.16
2023-01-11T12:38:01.267Z,95677.66
2023-01-11T12:40:37.136Z,95698.13
2023-01-11T12:43:32.961Z,95792.16
2023-01-11T12:46:12.432Z,95760.63
2023-01-11T12:48:50.155Z,95768.38
2023-01-11T12:51:30.540Z,95608.25
2023-01-11T12:54:18.034Z,95686.69
2023-01-11T12:56:56.505Z,95682.88
2023-01-11T12:59:46.161Z,95643.44
2023-01-11T13:02:37.331Z,95767.25
2023-01-11T13:05:17.330Z,95722.94
2023-01-11T13:07:58.885Z,95735.69
2023-01-11T13:10:40.201Z,95656.88
2023-01-11T13:13:15.709Z,95680.06
2023-01-11T13:15:52.109Z,95659.50
2023-01-11T13:18:31.032Z,95642.75
2023-01-11T13:21:04.429Z,95719.97
2023-01-11T13:23:40.153Z,95754.03
2023-01-11T13:26:18.561Z,95727.94
2023-01-11T13:28:50.062Z,95589.28
2023-01-11T13:31:19.691Z,95616.00
2023-01-11T13:33:54.818Z,95740.88
2023-01-11T13:36:26.650Z,95757.72
2023-01-11T13:39:00.077Z,95747.84
2023-01-11T13:41:33.807Z,95769.03
2023-01-11T13:44:08.451Z,95659.97
2023-01-11T13:46:47.173Z,95744.25
2023-01-11T13:49:26.836Z,95678.84
2023-01-11T13:51:59.445Z,95640.34
2023-01-11T13:54:35.795Z,95703.72
2023-01-11T13:57:08.111Z,95773.66
2023-01-11T13:59:40.576Z,95766.72
2023-01-11T14:02:18.731Z,95791.88
2023-01-11T14:04:54.501Z,95747.13
2023-01-11T14:07:35.551Z,95788.28
2023-01-11T14:10:18.817Z,95800.13
2023-01-11T14:13:01.909Z,95769.75
2023-01-11T14:15:38.071Z,95748.19
2023-01-11T14:18:22.603Z,95812.00
2023-01-11T14:21:01.446Z,95808.50
2023-01-11T14:23:39.467Z,95804.56
2023-01-11T14:26:39.239Z,95800.81
2023-01-11T14:29:34.793Z,95822.00
2023-01-11T14:32:23.302Z,95829.97
2023-01-11T14:35:12.798Z,95751.47
2023-01-11T14:38:18.771Z,95805.41
2023-01-11T14:41:23.993Z,95826.47
2023-01-11T14:44:08.265Z,95807.84
2023-01-11T14:47:06.706Z,95788.16
2023-01-11T14:49:52.712Z,95718.50
2023-01-11T14:52:39.195Z,95705.66
2023-01-11T14:55:19.580Z,95808.19
2023-01-11T14:58:02.649Z,95803.22
2023-01-11T15:01:11.127Z,95841.75
2023-01-11T15:03:58.003Z,95832.34
2023-01-11T15:06:28.268Z,95824.78
2023-01-11T15:08:56.410Z,95818.28
2023-01-11T15:11:40.684Z,95821.28
2023-01-11T15:14:24.720Z,95846.16
2023-01-11T15:17:12.305Z,95677.81
2023-01-11T15:19:42.642Z,95777.44
2023-01-11T15:22:24.073Z,95846.69
2023-01-11T15:24:58.122Z,95829.97
2023-01-11T15:27:31.941Z,95813.97
2023-01-11T15:30:00.220Z,95835.75
2023-01-11T15:32:30.902Z,95853.34
2023-01-11T15:35:33.033Z,95777.78
2023-01-11T15:38:13.831Z,95861.50
2023-01-11T15:40:46.362Z,95858.88
2023-01-11T15:43:50.268Z,95868.56
2023-01-11T15:46:57.472Z,95871.22
2023-01-11T15:49:50.884Z,95851.28
2023-01-11T15:52:54.316Z,95886.72
2023-01-11T15:56:01.573Z,95895.16
2023-01-11T15:59:07.480Z,95854.75
2023-01-11T16:01:55.254Z,95859.97
2023-01-11T16:04:30.179Z,95884.16
2023-01-11T16:07:02.790Z,95893.34
2023-01-11T16:09:54.851Z,95870.75
2023-01-11T16:12:41.603Z,95776.72
2023-01-11T16:15:33.653Z,95912.00
2023-01-11T16:18:12.475Z,95835.75
2023-01-11T16:20:43.465Z,95793.22
2023-01-11T16:23:19.722Z,95863.66
2023-01-11T16:25:52.079Z,95916.19
2023-01-11T16:28:20.089Z,95940.84
2023-01-11T16:30:57.000Z,95942.47
2023-01-11T16:33:27.394Z,95917.25
2023-01-11T16:36:06.910Z,95909.91
2023-01-11T16:39:03.426Z,95949.81
2023-01-11T16:41:35.924Z,95952.19
2023-01-11T16:44:07.266Z,95957.19
2023-01-11T16:47:08.241Z,95962.94
2023-01-11T16:49:36.038Z,95963.22
2023-01-11T16:52:39.081Z,95833.34
2023-01-11T16:55:36.881Z,95969.25
2023-01-11T16:58:06.973Z,95971.59
2023-01-11T17:00:38.271Z,95952.16
2023-01-11T17:03:21.099Z,95968.19
2023-01-11T17:05:58.295Z,95989.47
2023-01-11T17:08:28.357Z,95831.22
2023-01-11T17:10:59.909Z,95880.84
2023-01-11T17:14:12.982Z,95991.31
2023-01-11T17:17:06.906Z,95996.06
2023-01-11T17:19:38.506Z,95988.69
2023-01-11T17:22:08.898Z,96000.44
2023-01-11T17:24:42.231Z,95986.78
2023-01-11T17:27:18.996Z,95989.91
2023-01-11T17:29:48.514Z,96028.81
2023-01-11T17:32:20.613Z,95883.75
2023-01-11T17:34:51.473Z,96008.00
2023-01-11T17:37:20.411Z,96023.59
2023-01-11T17:39:50.794Z,96019.06
2023-01-11T17:42:36.383Z,96046.91
2023-01-11T17:45:19.418Z,96014.22
2023-01-11T17:47:53.778Z,96059.03
2023-01-11T17:50:27.550Z,96032.16
2023-01-11T17:53:07.645Z,95997.41
2023-01-11T17:55:35.772Z,95968.91
2023-01-11T17:58:23.783Z,96062.94
2023-01-11T18:01:10.592Z,96058.44
2023-01-11T18:03:41.945Z,95949.72
2023-01-11T18:06:14.073Z,95976.69
2023-01-11T18:08:47.995Z,96039.28
2023-01-11T18:11:24.141Z,95936.84
2023-01-11T18:13:53.447Z,96001.28
2023-01-11T18:16:22.443Z,96087.59
2023-01-11T18:18:52.889Z,96024.59
2023-01-11T18:21:51.125Z,96095.19
2023-01-11T18:24:43.165Z,95943.47
2023-01-11T18:27:25.024Z,96012.34
2023-01-11T18:29:53.440Z,96102.59
2023-01-11T18:32:21.709Z,96087.78
2023-01-11T18:34:53.526Z,95974.22
2023-01-11T18:37:22.991Z,96054.53
2023-01-11T18:39:54.142Z,96100.06
2023-01-11T18:42:27.786Z,96064.78
2023-01-11T18:44:55.467Z,96042.88
2023-01-11T18:47:24.689Z,96110.31
2023-01-11T18:49:54.649Z,96003.84
2023-01-11T18:52:27.458Z,96103.06
2023-01-11T18:54:58.303Z,96056.97
2023-01-11T18:57:26.229Z,95940.09
2023-01-11T18:59:54.186Z,96136.97
2023-01-11T19:02:25.486Z,96132.00
2023-01-11T19:04:54.810Z,96129.38
2023-01-11T19:07:24.815Z,96126.00
2023-01-11T19:09:54.748Z,96134.09
2023-01-11T19:12:22.837Z,96142.81
2023-01-11T19:14:50.536Z,96147.19
2023-01-11T19:17:18.439Z,96145.69
2023-01-11T19:19:46.110Z,96153.00
2023-01-11T19:22:13.815Z,96152.31
2023-01-11T19:24:42.928Z,96142.28
2023-01-11T19:27:13.353Z,96081.75
2023-01-11T19:29:41.141Z,96157.34
2023-01-11T19:32:09.053Z,96148.19
2023-01-11T19:34:37.233Z,96181.13
2023-01-11T19:37:04.880Z,96174.28
2023-01-11T19:39:32.572Z,96168.88
2023-01-11T19:42:02.859Z,96059.09
2023-01-11T19:44:32.782Z,96173.38
2023-01-11T19:47:10.929Z,96114.16
2023-01-11T19:49:39.922Z,96106.03
2023-01-11T19:52:12.185Z,96186.78
2023-01-11T19:54:41.773Z,96189.06
2023-01-11T19:57:11.322Z,96178.38
2023-01-11T19:59:39.177Z,96193.31
2023-01-11T20:02:07.723Z,96199.66
2023-01-11T20:04:35.360Z,96206.50
2023-01-11T20:07:03.201Z,96200.22
2023-01-11T20:09:30.867Z,96200.97
2023-01-11T20:11:58.837Z,96176.28
2023-01-11T20:14:27.856Z,96208.72
2023-01-11T20:16:55.515Z,96204.56
2023-01-11T20:19:23.176Z,96206.06
2023-01-11T20:21:50.808Z,96213.84
2023-01-11T20:24:18.516Z,96170.59
2023-01-11T20:26:46.525Z,96189.84
2023-01-11T20:29:14.351Z,96216.91
2023-01-11T20:31:43.372Z,96217.44
2023-01-11T20:34:13.250Z,96237.34
2023-01-11T20:36:42.018Z,96224.44
2023-01-11T20:39:11.133Z,96226.97
2023-01-11T20:41:47.627Z,96222.56
2023-01-11T20:44:17.191Z,96239.06
2023-01-11T20:46:48.109Z,96244.31
2023-01-11T20:49:16.318Z,96218.09
2023-01-11T20:51:44.056Z,96235.06
2023-01-11T20:54:12.101Z,96243.00
2023-01-11T20:56:40.804Z,96255.91
2023-01-11T20:59:09.759Z,96200.13
2023-01-11T21:01:38.309Z,96193.56
2023-01-11T21:04:10.512Z,96253.75
2023-01-11T21:06:41.321Z,96246.16
2023-01-11T21:09:10.340Z,96246.59
2023-01-11T21:14:11.786Z,96247.63
2023-01-11T21:16:42.297Z,96240.84
2023-01-11T21:19:14.376Z,96240.66
2023-01-11T21:21:43.100Z,96218.34
2023-01-11T21:24:14.014Z,96239.22
2023-01-11T21:26:43.487Z,96234.47
2023-01-11T21:29:11.468Z,96242.59
2023-01-11T21:31:40.211Z,96224.41
2023-01-11T21:34:08.471Z,96195.84
2023-01-11T21:36:37.477Z,96243.91
2023-01-11T21:39:05.355Z,96243.16
2023-01-11T21:41:51.997Z,96253.53
2023-01-11T21:44:22.071Z,96247.13
2023-01-11T21:46:50.810Z,96255.19
2023-01-11T21:49:18.677Z,96265.03
2023-01-11T21:51:47.682Z,96205.16
2023-01-11T21:54:18.306Z,96273.75
2023-01-11T21:56:46.180Z,96266.44
2023-01-11T21:59:14.201Z,96284.31
2023-01-11T22:01:45.003Z,96290.47
2023-01-11T22:04:14.579Z,96293.31
2023-01-11T22:06:46.361Z,96287.81
2023-01-11T22:09:15.460Z,96290.59
2023-01-11T22:11:43.177Z,96284.66
2023-01-11T22:14:11.052Z,96293.13
2023-01-11T22:16:39.262Z,96297.28
2023-01-11T22:19:08.653Z,96275.03
2023-01-11T22:21:37.739Z,96306.69
2023-01-11T22:24:32.418Z,96310.66
2023-01-11T22:27:00.194Z,96291.97
2023-01-11T22:29:29.814Z,96300.47
2023-01-11T22:32:01.146Z,96280.41
2023-01-11T22:34:29.161Z,96321.56
2023-01-11T22:36:56.995Z,96332.59
2023-01-11T22:39:24.965Z,96337.53
2023-01-11T22:41:54.097Z,96330.41
2023-01-11T22:44:22.121Z,96321.03
2023-01-11T22:46:49.873Z,96323.88
2023-01-11T22:49:19.588Z,96332.72
2023-01-11T22:51:47.533Z,96338.41
2023-01-11T22:54:15.695Z,96245.72
2023-01-11T22:56:43.820Z,96257.91
2023-01-11T22:59:12.834Z,96316.19
2023-01-11T23:01:42.138Z,96311.09
2023-01-11T23:04:13.231Z,96299.50
2023-01-11T23:06:54.056Z,96332.06
2023-01-11T23:09:21.755Z,96284.13
2023-01-11T23:12:06.891Z,96360.00
2023-01-11T23:14:38.491Z,96282.44
2023-01-11T23:17:07.352Z,96302.75
2023-01-11T23:19:36.406Z,96347.16
2023-01-11T23:22:05.123Z,96257.16
2023-01-11T23:24:33.073Z,96349.63
2023-01-11T23:27:00.973Z,96315.94
2023-01-11T23:29:28.716Z,96348.91
2023-01-11T23:31:57.874Z,96343.66
2023-01-11T23:34:25.658Z,96269.59
2023-01-11T23:36:53.350Z,96314.66
2023-01-11T23:39:21.328Z,96256.03
2023-01-11T23:42:06.472Z,96367.16
2023-01-11T23:44:34.206Z,96313.69
2023-01-11T23:47:20.647Z,96363.19
2023-01-11T23:49:49.502Z,96361.78
2023-01-11T23:52:17.279Z,96357.31
2023-01-11T23:54:46.034Z,96367.81
2023-01-11T23:57:14.983Z,96342.56
2023-01-11T23:59:43.943Z,96376.06
